sensor_id;sensor_type;location;lat;lon;timestamp;P1;durP1;ratioP1;P2;durP2;ratioP2
4428;SDS011;2227;47.810;8.810;2023-11-21T04:49:55;868.75;;;592.75;;
4428;SDS011;2227;47.810;8.810;2023-11-21T04:52:22;869.92;;;595.58;;
4428;SDS011;2227;47.810;8.810;2023-11-21T04:54:49;868.22;;;590.55;;
4428;SDS011;2227;47.810;8.810;2023-11-21T04:57:15;870.88;;;594.08;;
4428;SDS011;2227;47.810;8.810;2023-11-21T04:59:44;869.55;;;591.50;;
4428;SDS011;2227;47.810;8.810;2023-11-21T05:02:11;867.25;;;596.53;;
4428;SDS011;2227;47.810;8.810;2023-11-21T05:04:58;869.63;;;593.83;;
4428;SDS011;2227;47.810;8.810;2023-11-21T05:09:57;870.30;;;602.65;;
4428;SDS011;2227;47.810;8.810;2023-11-21T05:12:24;872.10;;;597.50;;
4428;SDS011;2227;47.810;8.810;2023-11-21T05:17:18;867.47;;;590.42;;
4428;SDS011;2227;47.810;8.810;2023-11-21T05:19:45;871.42;;;598.05;;
4428;SDS011;2227;47.810;8.810;2023-11-21T05:22:15;869.90;;;593.80;;
4428;SDS011;2227;47.810;8.810;2023-11-21T05:24:42;871.13;;;595.28;;
4428;SDS011;2227;47.810;8.810;2023-11-21T05:27:08;870.30;;;595.00;;
4428;SDS011;2227;47.810;8.810;2023-11-21T05:29:35;870.67;;;591.42;;
4428;SDS011;2227;47.810;8.810;2023-11-21T05:32:04;866.60;;;577.03;;
4428;SDS011;2227;47.810;8.810;2023-11-21T05:34:31;867.45;;;579.83;;
4428;SDS011;2227;47.810;8.810;2023-11-21T05:36:58;869.67;;;580.53;;
4428;SDS011;2227;47.810;8.810;2023-11-21T05:39:25;868.45;;;584.13;;
4428;SDS011;2227;47.810;8.810;2023-11-21T05:44:18;867.67;;;587.15;;
4428;SDS011;2227;47.810;8.810;2023-11-21T05:46:45;866.77;;;578.97;;
4428;SDS011;2227;47.810;8.810;2023-11-21T05:49:12;868.20;;;582.08;;
4428;SDS011;2227;47.810;8.810;2023-11-21T05:51:38;867.50;;;585.60;;
4428;SDS011;2227;47.810;8.810;2023-11-21T05:54:05;868.97;;;587.90;;
4428;SDS011;2227;47.810;8.810;2023-11-21T05:56:32;868.92;;;590.80;;
4428;SDS011;2227;47.810;8.810;2023-11-21T05:58:59;869.00;;;584.35;;
4428;SDS011;2227;47.810;8.810;2023-11-21T06:01:26;866.35;;;582.30;;
4428;SDS011;2227;47.810;8.810;2023-11-21T06:03:55;868.10;;;589.40;;
4428;SDS011;2227;47.810;8.810;2023-11-21T06:06:22;868.53;;;589.30;;
4428;SDS011;2227;47.810;8.810;2023-11-21T06:08:50;870.55;;;585.05;;
4428;SDS011;2227;47.810;8.810;2023-11-21T06:11:17;869.85;;;586.20;;
4428;SDS011;2227;47.810;8.810;2023-11-21T06:13:44;870.00;;;587.00;;
4428;SDS011;2227;47.810;8.810;2023-11-21T06:16:11;869.75;;;586.88;;
4428;SDS011;2227;47.810;8.810;2023-11-21T06:18:42;870.13;;;592.28;;
4428;SDS011;2227;47.810;8.810;2023-11-21T06:21:09;870.83;;;594.35;;
4428;SDS011;2227;47.810;8.810;2023-11-21T06:23:36;871.50;;;592.17;;
4428;SDS011;2227;47.810;8.810;2023-11-21T06:26:03;880.70;;;597.30;;
4428;SDS011;2227;47.810;8.810;2023-11-21T06:28:31;873.28;;;591.47;;
4428;SDS011;2227;47.810;8.810;2023-11-21T06:30:58;872.72;;;586.72;;
4428;SDS011;2227;47.810;8.810;2023-11-21T06:33:31;871.05;;;587.45;;
4428;SDS011;2227;47.810;8.810;2023-11-21T06:35:58;868.90;;;586.37;;
4428;SDS011;2227;47.810;8.810;2023-11-21T06:38:25;871.40;;;588.88;;
4428;SDS011;2227;47.810;8.810;2023-11-21T06:43:21;870.55;;;591.25;;
4428;SDS011;2227;47.810;8.810;2023-11-21T06:45:48;869.85;;;588.92;;
4428;SDS011;2227;47.810;8.810;2023-11-21T06:48:15;872.05;;;591.10;;
4428;SDS011;2227;47.810;8.810;2023-11-21T06:50:42;876.00;;;587.80;;
4428;SDS011;2227;47.810;8.810;2023-11-21T06:53:08;872.17;;;589.75;;
4428;SDS011;2227;47.810;8.810;2023-11-21T06:55:36;868.40;;;587.97;;
4428;SDS011;2227;47.810;8.810;2023-11-21T07:00:29;869.90;;;594.87;;
4428;SDS011;2227;47.810;8.810;2023-11-21T07:02:56;868.90;;;590.55;;
4428;SDS011;2227;47.810;8.810;2023-11-21T07:05:22;873.38;;;594.40;;
4428;SDS011;2227;47.810;8.810;2023-11-21T07:07:49;873.15;;;593.05;;
4428;SDS011;2227;47.810;8.810;2023-11-21T07:10:17;871.22;;;595.78;;
4428;SDS011;2227;47.810;8.810;2023-11-21T07:12:43;867.67;;;603.53;;
4428;SDS011;2227;47.810;8.810;2023-11-21T07:15:10;868.80;;;609.78;;
4428;SDS011;2227;47.810;8.810;2023-11-21T07:17:37;870.40;;;597.90;;
4428;SDS011;2227;47.810;8.810;2023-11-21T07:20:07;870.70;;;591.15;;
4428;SDS011;2227;47.810;8.810;2023-11-21T07:22:34;869.95;;;594.20;;
4428;SDS011;2227;47.810;8.810;2023-11-21T07:25:01;870.85;;;597.20;;
4428;SDS011;2227;47.810;8.810;2023-11-21T07:27:28;873.05;;;595.72;;
4428;SDS011;2227;47.810;8.810;2023-11-21T07:29:55;869.53;;;598.45;;
4428;SDS011;2227;47.810;8.810;2023-11-21T07:32:21;874.50;;;600.30;;
4428;SDS011;2227;47.810;8.810;2023-11-21T07:34:48;871.70;;;593.00;;
4428;SDS011;2227;47.810;8.810;2023-11-21T07:37:15;871.80;;;597.00;;
4428;SDS011;2227;47.810;8.810;2023-11-21T07:39:42;869.50;;;596.20;;
4428;SDS011;2227;47.810;8.810;2023-11-21T07:42:09;870.97;;;597.53;;
4428;SDS011;2227;47.810;8.810;2023-11-21T07:44:37;868.15;;;605.58;;
4428;SDS011;2227;47.810;8.810;2023-11-21T07:47:03;869.53;;;613.43;;
4428;SDS011;2227;47.810;8.810;2023-11-21T07:49:31;871.10;;;615.40;;
4428;SDS011;2227;47.810;8.810;2023-11-21T07:51:57;870.60;;;617.40;;
4428;SDS011;2227;47.810;8.810;2023-11-21T07:54:24;873.95;;;623.42;;
4428;SDS011;2227;47.810;8.810;2023-11-21T07:56:51;875.00;;;627.50;;
4428;SDS011;2227;47.810;8.810;2023-11-21T07:59:17;873.35;;;621.30;;
4428;SDS011;2227;47.810;8.810;2023-11-21T08:01:44;873.88;;;624.17;;
4428;SDS011;2227;47.810;8.810;2023-11-21T08:04:12;872.97;;;619.17;;
4428;SDS011;2227;47.810;8.810;2023-11-21T08:06:39;872.25;;;619.05;;
4428;SDS011;2227;47.810;8.810;2023-11-21T08:09:07;872.60;;;618.70;;
4428;SDS011;2227;47.810;8.810;2023-11-21T08:11:34;874.57;;;626.27;;
4428;SDS011;2227;47.810;8.810;2023-11-21T08:14:01;872.15;;;623.75;;
4428;SDS011;2227;47.810;8.810;2023-11-21T08:16:28;873.43;;;622.27;;
4428;SDS011;2227;47.810;8.810;2023-11-21T08:18:55;873.20;;;625.80;;
4428;SDS011;2227;47.810;8.810;2023-11-21T08:21:22;871.90;;;624.33;;
4428;SDS011;2227;47.810;8.810;2023-11-21T08:23:55;872.28;;;623.22;;
4428;SDS011;2227;47.810;8.810;2023-11-21T08:26:21;872.42;;;621.55;;
4428;SDS011;2227;47.810;8.810;2023-11-21T08:28:49;871.40;;;618.70;;
4428;SDS011;2227;47.810;8.810;2023-11-21T08:31:23;870.20;;;621.10;;
4428;SDS011;2227;47.810;8.810;2023-11-21T08:33:51;873.47;;;627.83;;
4428;SDS011;2227;47.810;8.810;2023-11-21T08:36:22;872.55;;;625.05;;
4428;SDS011;2227;47.810;8.810;2023-11-21T08:38:50;874.33;;;627.08;;
4428;SDS011;2227;47.810;8.810;2023-11-21T08:41:20;874.13;;;627.80;;
4428;SDS011;2227;47.810;8.810;2023-11-21T08:43:47;875.63;;;632.47;;
4428;SDS011;2227;47.810;8.810;2023-11-21T08:46:16;875.00;;;623.97;;
4428;SDS011;2227;47.810;8.810;2023-11-21T08:48:44;878.30;;;629.30;;
4428;SDS011;2227;47.810;8.810;2023-11-21T08:51:11;874.72;;;627.35;;
4428;SDS011;2227;47.810;8.810;2023-11-21T08:56:07;871.35;;;622.33;;
4428;SDS011;2227;47.810;8.810;2023-11-21T08:58:35;871.83;;;621.47;;
4428;SDS011;2227;47.810;8.810;2023-11-21T09:01:04;871.85;;;620.47;;
4428;SDS011;2227;47.810;8.810;2023-11-21T09:03:32;870.60;;;618.33;;
4428;SDS011;2227;47.810;8.810;2023-11-21T09:06:00;870.28;;;620.42;;
4428;SDS011;2227;47.810;8.810;2023-11-21T09:08:27;866.85;;;613.88;;
4428;SDS011;2227;47.810;8.810;2023-11-21T09:10:55;869.33;;;623.13;;
4428;SDS011;2227;47.810;8.810;2023-11-21T09:13:22;872.10;;;620.90;;
4428;SDS011;2227;47.810;8.810;2023-11-21T09:15:51;872.40;;;623.55;;
4428;SDS011;2227;47.810;8.810;2023-11-21T09:18:18;874.70;;;629.30;;
4428;SDS011;2227;47.810;8.810;2023-11-21T09:20:45;873.80;;;628.25;;
4428;SDS011;2227;47.810;8.810;2023-11-21T09:23:12;875.25;;;632.60;;
4428;SDS011;2227;47.810;8.810;2023-11-21T09:25:38;876.83;;;637.70;;
4428;SDS011;2227;47.810;8.810;2023-11-21T09:28:05;877.20;;;631.90;;
4428;SDS011;2227;47.810;8.810;2023-11-21T09:30:35;878.85;;;640.40;;
4428;SDS011;2227;47.810;8.810;2023-11-21T09:33:02;880.80;;;640.70;;
4428;SDS011;2227;47.810;8.810;2023-11-21T09:35:31;879.83;;;642.13;;
4428;SDS011;2227;47.810;8.810;2023-11-21T09:37:58;878.90;;;642.10;;
4428;SDS011;2227;47.810;8.810;2023-11-21T09:40:28;878.22;;;642.50;;
4428;SDS011;2227;47.810;8.810;2023-11-21T09:42:55;879.30;;;643.50;;
4428;SDS011;2227;47.810;8.810;2023-11-21T09:45:27;881.80;;;645.10;;
4428;SDS011;2227;47.810;8.810;2023-11-21T09:47:55;887.15;;;651.42;;
4428;SDS011;2227;47.810;8.810;2023-11-21T09:50:23;883.53;;;655.20;;
4428;SDS011;2227;47.810;8.810;2023-11-21T09:55:45;889.60;;;686.42;;
4428;SDS011;2227;47.810;8.810;2023-11-21T09:58:13;892.22;;;698.90;;
4428;SDS011;2227;47.810;8.810;2023-11-21T10:00:42;898.45;;;721.00;;
4428;SDS011;2227;47.810;8.810;2023-11-21T10:03:13;899.73;;;748.57;;
4428;SDS011;2227;47.810;8.810;2023-11-21T10:05:44;914.58;;;814.50;;
4428;SDS011;2227;47.810;8.810;2023-11-21T10:08:14;927.20;;;827.35;;
4428;SDS011;2227;47.810;8.810;2023-11-21T10:10:44;981.65;;;881.60;;
4428;SDS011;2227;47.810;8.810;2023-11-21T10:13:13;999.92;;;900.22;;
4428;SDS011;2227;47.810;8.810;2023-11-21T10:15:43;1004.63;;;905.35;;
4428;SDS011;2227;47.810;8.810;2023-11-21T10:18:15;1007.57;;;908.23;;
4428;SDS011;2227;47.810;8.810;2023-11-21T10:20:42;1003.80;;;904.40;;
4428;SDS011;2227;47.810;8.810;2023-11-21T10:23:10;1002.10;;;902.80;;
4428;SDS011;2227;47.810;8.810;2023-11-21T10:25:39;1021.13;;;921.03;;
4428;SDS011;2227;47.810;8.810;2023-11-21T10:28:05;1028.70;;;928.80;;
4428;SDS011;2227;47.810;8.810;2023-11-21T10:30:34;1050.60;;;951.30;;
4428;SDS011;2227;47.810;8.810;2023-11-21T10:33:04;1049.65;;;950.75;;
4428;SDS011;2227;47.810;8.810;2023-11-21T10:38:08;1053.83;;;955.03;;
4428;SDS011;2227;47.810;8.810;2023-11-21T10:40:40;1054.33;;;955.43;;
4428;SDS011;2227;47.810;8.810;2023-11-21T10:43:08;1031.75;;;932.10;;
4428;SDS011;2227;47.810;8.810;2023-11-21T10:45:36;1023.00;;;923.20;;
4428;SDS011;2227;47.810;8.810;2023-11-21T10:48:07;995.10;;;895.53;;
4428;SDS011;2227;47.810;8.810;2023-11-21T10:50:35;951.63;;;851.83;;
4428;SDS011;2227;47.810;8.810;2023-11-21T10:53:02;927.47;;;828.07;;
4428;SDS011;2227;47.810;8.810;2023-11-21T10:55:31;920.83;;;821.33;;
4428;SDS011;2227;47.810;8.810;2023-11-21T10:57:59;920.88;;;821.38;;
4428;SDS011;2227;47.810;8.810;2023-11-21T11:00:34;906.60;;;807.30;;
4428;SDS011;2227;47.810;8.810;2023-11-21T11:03:01;904.78;;;805.47;;
4428;SDS011;2227;47.810;8.810;2023-11-21T11:05:29;904.65;;;805.17;;
4428;SDS011;2227;47.810;8.810;2023-11-21T11:07:59;894.90;;;792.15;;
4428;SDS011;2227;47.810;8.810;2023-11-21T11:10:30;897.20;;;768.97;;
4428;SDS011;2227;47.810;8.810;2023-11-21T11:12:57;897.03;;;767.00;;
4428;SDS011;2227;47.810;8.810;2023-11-21T11:15:25;896.40;;;757.50;;
4428;SDS011;2227;47.810;8.810;2023-11-21T11:17:53;897.80;;;759.88;;
4428;SDS011;2227;47.810;8.810;2023-11-21T11:20:25;893.95;;;749.55;;
4428;SDS011;2227;47.810;8.810;2023-11-21T11:31:31;894.23;;;720.13;;
4428;SDS011;2227;47.810;8.810;2023-11-21T11:37:02;892.28;;;708.55;;
4428;SDS011;2227;47.810;8.810;2023-11-21T11:39:39;893.03;;;699.30;;
4428;SDS011;2227;47.810;8.810;2023-11-21T11:42:14;889.85;;;694.67;;
4428;SDS011;2227;47.810;8.810;2023-11-21T11:55:07;886.90;;;693.00;;
4428;SDS011;2227;47.810;8.810;2023-11-21T11:57:47;886.95;;;692.70;;
4428;SDS011;2227;47.810;8.810;2023-11-21T12:00:22;886.30;;;691.50;;
4428;SDS011;2227;47.810;8.810;2023-11-21T12:03:07;888.40;;;700.05;;
4428;SDS011;2227;47.810;8.810;2023-11-21T12:05:35;889.90;;;700.13;;
4428;SDS011;2227;47.810;8.810;2023-11-21T12:08:05;887.65;;;700.47;;
4428;SDS011;2227;47.810;8.810;2023-11-21T12:10:34;888.47;;;695.35;;
4428;SDS011;2227;47.810;8.810;2023-11-21T12:13:05;887.90;;;700.70;;
4428;SDS011;2227;47.810;8.810;2023-11-21T12:15:34;888.25;;;703.47;;
4428;SDS011;2227;47.810;8.810;2023-11-21T12:18:01;889.15;;;708.97;;
4428;SDS011;2227;47.810;8.810;2023-11-21T12:20:30;888.30;;;702.25;;
4428;SDS011;2227;47.810;8.810;2023-11-21T12:22:58;888.45;;;704.33;;
4428;SDS011;2227;47.810;8.810;2023-11-21T12:25:26;891.50;;;716.38;;
4428;SDS011;2227;47.810;8.810;2023-11-21T12:27:59;890.30;;;712.28;;
4428;SDS011;2227;47.810;8.810;2023-11-21T12:30:29;890.00;;;720.58;;
4428;SDS011;2227;47.810;8.810;2023-11-21T12:32:58;891.28;;;725.53;;
4428;SDS011;2227;47.810;8.810;2023-11-21T12:35:27;885.10;;;731.95;;
4428;SDS011;2227;47.810;8.810;2023-11-21T12:37:56;888.88;;;734.65;;
4428;SDS011;2227;47.810;8.810;2023-11-21T12:40:24;886.97;;;741.05;;
4428;SDS011;2227;47.810;8.810;2023-11-21T12:42:52;884.55;;;737.00;;
4428;SDS011;2227;47.810;8.810;2023-11-21T12:45:21;885.25;;;744.40;;
4428;SDS011;2227;47.810;8.810;2023-11-21T12:47:52;886.25;;;741.03;;
4428;SDS011;2227;47.810;8.810;2023-11-21T12:50:26;888.55;;;757.40;;
4428;SDS011;2227;47.810;8.810;2023-11-21T12:53:01;885.92;;;739.38;;
4428;SDS011;2227;47.810;8.810;2023-11-21T12:55:32;885.70;;;740.78;;
4428;SDS011;2227;47.810;8.810;2023-11-21T12:58:02;884.20;;;742.20;;
4428;SDS011;2227;47.810;8.810;2023-11-21T13:00:48;884.22;;;743.58;;
4428;SDS011;2227;47.810;8.810;2023-11-21T13:03:16;885.53;;;745.53;;
4428;SDS011;2227;47.810;8.810;2023-11-21T13:05:46;884.83;;;745.10;;
4428;SDS011;2227;47.810;8.810;2023-11-21T13:08:18;884.67;;;743.33;;
4428;SDS011;2227;47.810;8.810;2023-11-21T13:10:48;887.40;;;720.27;;
4428;SDS011;2227;47.810;8.810;2023-11-21T13:13:22;883.45;;;740.22;;
4428;SDS011;2227;47.810;8.810;2023-11-21T13:15:52;884.47;;;742.47;;
4428;SDS011;2227;47.810;8.810;2023-11-21T13:18:27;885.05;;;725.78;;
4428;SDS011;2227;47.810;8.810;2023-11-21T13:20:56;885.78;;;717.78;;
4428;SDS011;2227;47.810;8.810;2023-11-21T13:23:24;883.90;;;735.07;;
4428;SDS011;2227;47.810;8.810;2023-11-21T13:25:52;884.90;;;747.03;;
4428;SDS011;2227;47.810;8.810;2023-11-21T13:28:30;887.50;;;724.22;;
4428;SDS011;2227;47.810;8.810;2023-11-21T13:31:00;885.60;;;739.25;;
4428;SDS011;2227;47.810;8.810;2023-11-21T13:33:47;883.92;;;746.53;;
4428;SDS011;2227;47.810;8.810;2023-11-21T13:36:22;884.97;;;719.10;;
4428;SDS011;2227;47.810;8.810;2023-11-21T13:38:50;881.85;;;738.90;;
4428;SDS011;2227;47.810;8.810;2023-11-21T13:41:18;885.10;;;721.67;;
4428;SDS011;2227;47.810;8.810;2023-11-21T13:43:46;885.17;;;724.33;;
4428;SDS011;2227;47.810;8.810;2023-11-21T13:46:16;884.95;;;719.72;;
4428;SDS011;2227;47.810;8.810;2023-11-21T13:48:49;884.60;;;719.93;;
4428;SDS011;2227;47.810;8.810;2023-11-21T13:51:23;882.75;;;730.22;;
4428;SDS011;2227;47.810;8.810;2023-11-21T13:54:02;886.33;;;721.80;;
4428;SDS011;2227;47.810;8.810;2023-11-21T13:56:31;883.15;;;722.88;;
4428;SDS011;2227;47.810;8.810;2023-11-21T13:58:58;880.90;;;738.95;;
4428;SDS011;2227;47.810;8.810;2023-11-21T14:01:32;884.63;;;726.07;;
4428;SDS011;2227;47.810;8.810;2023-11-21T14:04:22;881.42;;;727.63;;
4428;SDS011;2227;47.810;8.810;2023-11-21T14:07:07;885.08;;;718.03;;
4428;SDS011;2227;47.810;8.810;2023-11-21T14:09:48;883.13;;;743.60;;
4428;SDS011;2227;47.810;8.810;2023-11-21T14:12:16;884.10;;;742.70;;
4428;SDS011;2227;47.810;8.810;2023-11-21T14:14:42;885.30;;;747.92;;
4428;SDS011;2227;47.810;8.810;2023-11-21T14:17:10;884.88;;;751.85;;
4428;SDS011;2227;47.810;8.810;2023-11-21T14:19:37;882.67;;;752.47;;
4428;SDS011;2227;47.810;8.810;2023-11-21T14:22:10;882.40;;;744.13;;
4428;SDS011;2227;47.810;8.810;2023-11-21T14:24:37;882.17;;;743.03;;
4428;SDS011;2227;47.810;8.810;2023-11-21T14:27:03;883.10;;;746.05;;
4428;SDS011;2227;47.810;8.810;2023-11-21T14:29:31;883.53;;;748.17;;
4428;SDS011;2227;47.810;8.810;2023-11-21T14:32:03;885.17;;;741.42;;
4428;SDS011;2227;47.810;8.810;2023-11-21T14:34:30;886.03;;;724.88;;
4428;SDS011;2227;47.810;8.810;2023-11-21T14:36:56;889.30;;;723.13;;
4428;SDS011;2227;47.810;8.810;2023-11-21T14:39:23;886.00;;;711.35;;
4428;SDS011;2227;47.810;8.810;2023-11-21T14:41:53;887.70;;;721.40;;
4428;SDS011;2227;47.810;8.810;2023-11-21T14:44:22;886.60;;;716.72;;
4428;SDS011;2227;47.810;8.810;2023-11-21T14:46:52;887.50;;;718.87;;
4428;SDS011;2227;47.810;8.810;2023-11-21T14:49:23;886.80;;;714.58;;
4428;SDS011;2227;47.810;8.810;2023-11-21T14:51:53;886.15;;;711.20;;
4428;SDS011;2227;47.810;8.810;2023-11-21T14:54:30;883.83;;;707.30;;
4428;SDS011;2227;47.810;8.810;2023-11-21T14:57:08;884.17;;;705.20;;
4428;SDS011;2227;47.810;8.810;2023-11-21T14:59:42;885.20;;;713.40;;
4428;SDS011;2227;47.810;8.810;2023-11-21T15:02:24;884.60;;;709.40;;
4428;SDS011;2227;47.810;8.810;2023-11-21T15:05:10;885.58;;;716.75;;
4428;SDS011;2227;47.810;8.810;2023-11-21T15:07:43;885.03;;;712.38;;
4428;SDS011;2227;47.810;8.810;2023-11-21T15:10:12;883.42;;;703.17;;
4428;SDS011;2227;47.810;8.810;2023-11-21T15:12:42;884.90;;;711.85;;
4428;SDS011;2227;47.810;8.810;2023-11-21T15:15:10;885.10;;;705.55;;
4428;SDS011;2227;47.810;8.810;2023-11-21T15:17:40;885.53;;;707.20;;
4428;SDS011;2227;47.810;8.810;2023-11-21T15:20:09;885.88;;;709.05;;
4428;SDS011;2227;47.810;8.810;2023-11-21T15:22:39;885.78;;;704.20;;
4428;SDS011;2227;47.810;8.810;2023-11-21T15:25:06;884.35;;;699.13;;
4428;SDS011;2227;47.810;8.810;2023-11-21T15:27:36;886.28;;;705.72;;
4428;SDS011;2227;47.810;8.810;2023-11-21T15:30:03;884.20;;;704.33;;
4428;SDS011;2227;47.810;8.810;2023-11-21T15:32:30;884.75;;;702.80;;
4428;SDS011;2227;47.810;8.810;2023-11-21T15:34:57;883.70;;;700.60;;
4428;SDS011;2227;47.810;8.810;2023-11-21T15:37:24;882.08;;;692.10;;
4428;SDS011;2227;47.810;8.810;2023-11-21T15:39:53;883.00;;;697.60;;
4428;SDS011;2227;47.810;8.810;2023-11-21T15:42:20;883.58;;;699.10;;
4428;SDS011;2227;47.810;8.810;2023-11-21T15:44:47;884.42;;;704.72;;
4428;SDS011;2227;47.810;8.810;2023-11-21T15:47:14;883.15;;;695.47;;
4428;SDS011;2227;47.810;8.810;2023-11-21T15:49:40;884.40;;;691.75;;
4428;SDS011;2227;47.810;8.810;2023-11-21T15:52:07;883.72;;;692.90;;
4428;SDS011;2227;47.810;8.810;2023-11-21T15:54:38;885.85;;;681.25;;
4428;SDS011;2227;47.810;8.810;2023-11-21T15:57:06;884.50;;;685.88;;
4428;SDS011;2227;47.810;8.810;2023-11-21T15:59:34;886.53;;;677.10;;
4428;SDS011;2227;47.810;8.810;2023-11-21T16:02:01;886.42;;;679.55;;
4428;SDS011;2227;47.810;8.810;2023-11-21T16:04:31;887.33;;;675.30;;
4428;SDS011;2227;47.810;8.810;2023-11-21T16:06:58;885.35;;;686.60;;
4428;SDS011;2227;47.810;8.810;2023-11-21T16:09:26;883.08;;;688.33;;
4428;SDS011;2227;47.810;8.810;2023-11-21T16:12:00;885.28;;;677.78;;
4428;SDS011;2227;47.810;8.810;2023-11-21T16:14:29;887.08;;;682.05;;
4428;SDS011;2227;47.810;8.810;2023-11-21T16:17:11;887.20;;;680.08;;
4428;SDS011;2227;47.810;8.810;2023-11-21T16:19:38;885.53;;;669.73;;
4428;SDS011;2227;47.810;8.810;2023-11-21T16:22:06;884.30;;;668.28;;
4428;SDS011;2227;47.810;8.810;2023-11-21T16:24:33;884.60;;;669.10;;
4428;SDS011;2227;47.810;8.810;2023-11-21T16:27:00;885.40;;;671.03;;
4428;SDS011;2227;47.810;8.810;2023-11-21T16:29:28;885.58;;;666.25;;
4428;SDS011;2227;47.810;8.810;2023-11-21T16:31:57;886.10;;;671.45;;
4428;SDS011;2227;47.810;8.810;2023-11-21T16:34:24;885.00;;;669.35;;
4428;SDS011;2227;47.810;8.810;2023-11-21T16:36:50;883.70;;;667.90;;
4428;SDS011;2227;47.810;8.810;2023-11-21T16:39:18;884.20;;;671.63;;
4428;SDS011;2227;47.810;8.810;2023-11-21T16:41:46;883.85;;;667.53;;
4428;SDS011;2227;47.810;8.810;2023-11-21T16:44:17;883.97;;;667.22;;
4428;SDS011;2227;47.810;8.810;2023-11-21T16:46:53;885.08;;;672.08;;
4428;SDS011;2227;47.810;8.810;2023-11-21T16:49:23;885.40;;;670.97;;
4428;SDS011;2227;47.810;8.810;2023-11-21T16:51:52;882.90;;;664.47;;
4428;SDS011;2227;47.810;8.810;2023-11-21T16:54:20;882.30;;;662.80;;
4428;SDS011;2227;47.810;8.810;2023-11-21T16:56:47;885.03;;;667.28;;
4428;SDS011;2227;47.810;8.810;2023-11-21T16:59:14;885.47;;;670.63;;
4428;SDS011;2227;47.810;8.810;2023-11-21T17:01:41;884.00;;;668.30;;
4428;SDS011;2227;47.810;8.810;2023-11-21T17:04:10;882.60;;;664.15;;
4428;SDS011;2227;47.810;8.810;2023-11-21T17:06:41;881.65;;;661.80;;
4428;SDS011;2227;47.810;8.810;2023-11-21T17:09:08;883.30;;;664.90;;
4428;SDS011;2227;47.810;8.810;2023-11-21T17:11:40;884.00;;;666.90;;
4428;SDS011;2227;47.810;8.810;2023-11-21T17:14:07;883.10;;;663.60;;
4428;SDS011;2227;47.810;8.810;2023-11-21T17:16:35;885.37;;;674.33;;
4428;SDS011;2227;47.810;8.810;2023-11-21T17:19:02;882.30;;;660.10;;
4428;SDS011;2227;47.810;8.810;2023-11-21T17:21:30;881.60;;;662.80;;
4428;SDS011;2227;47.810;8.810;2023-11-21T17:24:00;881.37;;;660.97;;
4428;SDS011;2227;47.810;8.810;2023-11-21T17:26:28;881.90;;;663.42;;
4428;SDS011;2227;47.810;8.810;2023-11-21T17:28:55;881.63;;;659.85;;
4428;SDS011;2227;47.810;8.810;2023-11-21T17:31:23;881.05;;;663.75;;
4428;SDS011;2227;47.810;8.810;2023-11-21T17:33:50;880.97;;;662.33;;
4428;SDS011;2227;47.810;8.810;2023-11-21T17:36:17;882.72;;;666.60;;
4428;SDS011;2227;47.810;8.810;2023-11-21T17:38:45;887.33;;;664.60;;
4428;SDS011;2227;47.810;8.810;2023-11-21T17:41:11;898.95;;;675.25;;
4428;SDS011;2227;47.810;8.810;2023-11-21T17:43:39;898.67;;;668.13;;
4428;SDS011;2227;47.810;8.810;2023-11-21T17:46:08;884.60;;;665.78;;
4428;SDS011;2227;47.810;8.810;2023-11-21T17:48:35;887.88;;;662.33;;
4428;SDS011;2227;47.810;8.810;2023-11-21T17:51:04;881.50;;;662.30;;
4428;SDS011;2227;47.810;8.810;2023-11-21T17:53:31;880.63;;;665.53;;
4428;SDS011;2227;47.810;8.810;2023-11-21T17:55:58;881.00;;;659.78;;
4428;SDS011;2227;47.810;8.810;2023-11-21T17:58:25;877.72;;;649.88;;
4428;SDS011;2227;47.810;8.810;2023-11-21T18:00:52;879.27;;;655.73;;
4428;SDS011;2227;47.810;8.810;2023-11-21T18:03:19;879.17;;;648.45;;
4428;SDS011;2227;47.810;8.810;2023-11-21T18:05:47;879.25;;;653.03;;
4428;SDS011;2227;47.810;8.810;2023-11-21T18:08:14;879.70;;;653.25;;
4428;SDS011;2227;47.810;8.810;2023-11-21T18:10:41;878.95;;;646.90;;
4428;SDS011;2227;47.810;8.810;2023-11-21T18:13:08;877.25;;;645.25;;
4428;SDS011;2227;47.810;8.810;2023-11-21T18:15:37;878.70;;;643.92;;
4428;SDS011;2227;47.810;8.810;2023-11-21T18:18:05;877.22;;;642.15;;
4428;SDS011;2227;47.810;8.810;2023-11-21T18:20:31;878.70;;;643.05;;
4428;SDS011;2227;47.810;8.810;2023-11-21T18:22:58;881.80;;;646.05;;
4428;SDS011;2227;47.810;8.810;2023-11-21T18:25:25;882.70;;;644.97;;
4428;SDS011;2227;47.810;8.810;2023-11-21T18:27:55;880.03;;;645.83;;
4428;SDS011;2227;47.810;8.810;2023-11-21T18:30:21;878.80;;;645.80;;
4428;SDS011;2227;47.810;8.810;2023-11-21T18:32:48;879.50;;;644.60;;
4428;SDS011;2227;47.810;8.810;2023-11-21T18:35:15;879.38;;;647.42;;
4428;SDS011;2227;47.810;8.810;2023-11-21T18:37:42;878.08;;;642.80;;
4428;SDS011;2227;47.810;8.810;2023-11-21T18:40:12;879.45;;;642.20;;
4428;SDS011;2227;47.810;8.810;2023-11-21T18:42:41;883.05;;;652.53;;
4428;SDS011;2227;47.810;8.810;2023-11-21T18:45:11;881.42;;;650.22;;
4428;SDS011;2227;47.810;8.810;2023-11-21T18:47:38;880.65;;;645.58;;
4428;SDS011;2227;47.810;8.810;2023-11-21T18:50:05;879.40;;;648.40;;
4428;SDS011;2227;47.810;8.810;2023-11-21T18:52:33;877.55;;;647.55;;
4428;SDS011;2227;47.810;8.810;2023-11-21T18:55:00;878.75;;;645.00;;
4428;SDS011;2227;47.810;8.810;2023-11-21T18:57:28;879.03;;;647.40;;
4428;SDS011;2227;47.810;8.810;2023-11-21T18:59:57;879.17;;;646.60;;
4428;SDS011;2227;47.810;8.810;2023-11-21T19:02:24;878.75;;;645.72;;
4428;SDS011;2227;47.810;8.810;2023-11-21T19:04:52;879.33;;;650.17;;
4428;SDS011;2227;47.810;8.810;2023-11-21T19:07:19;879.15;;;651.53;;
4428;SDS011;2227;47.810;8.810;2023-11-21T19:09:48;877.13;;;644.00;;
4428;SDS011;2227;47.810;8.810;2023-11-21T19:12:17;878.33;;;645.13;;
4428;SDS011;2227;47.810;8.810;2023-11-21T19:14:44;875.47;;;646.00;;
4428;SDS011;2227;47.810;8.810;2023-11-21T19:17:13;876.53;;;643.65;;
4428;SDS011;2227;47.810;8.810;2023-11-21T19:19:40;881.03;;;649.90;;
4428;SDS011;2227;47.810;8.810;2023-11-21T19:22:07;878.85;;;648.55;;
4428;SDS011;2227;47.810;8.810;2023-11-21T19:24:34;878.97;;;647.88;;
4428;SDS011;2227;47.810;8.810;2023-11-21T19:27:01;878.93;;;645.70;;
4428;SDS011;2227;47.810;8.810;2023-11-21T19:29:29;879.45;;;648.65;;
4428;SDS011;2227;47.810;8.810;2023-11-21T19:31:55;879.83;;;649.53;;
4428;SDS011;2227;47.810;8.810;2023-11-21T19:34:22;881.70;;;649.90;;
4428;SDS011;2227;47.810;8.810;2023-11-21T19:36:51;880.85;;;651.15;;
4428;SDS011;2227;47.810;8.810;2023-11-21T19:39:18;881.47;;;653.92;;
4428;SDS011;2227;47.810;8.810;2023-11-21T19:41:44;879.45;;;648.40;;
4428;SDS011;2227;47.810;8.810;2023-11-21T19:44:12;878.92;;;648.05;;
4428;SDS011;2227;47.810;8.810;2023-11-21T19:46:40;879.97;;;650.03;;
4428;SDS011;2227;47.810;8.810;2023-11-21T19:49:06;878.75;;;649.88;;
4428;SDS011;2227;47.810;8.810;2023-11-21T19:51:36;879.83;;;651.83;;
4428;SDS011;2227;47.810;8.810;2023-11-21T19:54:03;879.70;;;650.22;;
4428;SDS011;2227;47.810;8.810;2023-11-21T19:56:32;879.55;;;650.38;;
4428;SDS011;2227;47.810;8.810;2023-11-21T19:59:01;879.78;;;652.38;;
4428;SDS011;2227;47.810;8.810;2023-11-21T20:01:28;879.63;;;649.35;;